Terminal Aerodrome Forecast
Issued by NWS

Home | Current Version | Previous Version | Text Only | Print | Product List | Glossary On
Versions: 1 2 3 4 5 6 7 8 9 10 11 12 13 14 15 16
000
FTUS45 KSLC 240059 AAA
TAFEVW
TAF AMD
KEVW 240059Z 2401/2424 27014KT P6SM SKC
     FM240200 30009KT P6SM SKC
     FM240600 VRB05KT P6SM SKC
     FM241400 16007KT P6SM SKC
     FM241700 25009KT P6SM SKC
     FM242000 26012G22KT P6SM FEW150=

USA.gov is the U.S. government's official web portal to all federal, state and local government web resources and services.